createdAt,value
2023-05-15T00:02:14.434Z,75.70
2023-05-15T00:04:41.463Z,75.70
2023-05-15T00:07:09.669Z,75.80
2023-05-15T00:09:36.628Z,75.80
2023-05-15T00:12:07.389Z,75.80
2023-05-15T00:14:37.334Z,76.00
2023-05-15T00:17:04.239Z,76.00
2023-05-15T00:19:31.176Z,76.00
2023-05-15T00:21:58.178Z,76.00
2023-05-15T00:24:25.076Z,76.00
2023-05-15T00:26:52.866Z,76.00
2023-05-15T00:29:19.970Z,76.00
2023-05-15T00:31:47.948Z,76.00
2023-05-15T00:34:14.826Z,76.00
2023-05-15T00:36:41.754Z,76.00
2023-05-15T00:39:08.588Z,76.00
2023-05-15T00:41:36.996Z,76.00
2023-05-15T00:44:04.115Z,76.00
2023-05-15T00:46:32.348Z,76.00
2023-05-15T00:48:59.324Z,76.00
2023-05-15T00:51:27.689Z,75.90
2023-05-15T00:53:58.981Z,76.00
2023-05-15T00:56:26.220Z,76.00
2023-05-15T00:58:53.069Z,76.00
2023-05-15T01:01:20.738Z,76.00
2023-05-15T01:03:47.568Z,75.90
2023-05-15T01:06:15.276Z,75.90
2023-05-15T01:08:48.332Z,75.90
2023-05-15T01:11:18.898Z,75.80
2023-05-15T01:13:45.821Z,75.80
2023-05-15T01:16:12.665Z,75.70
2023-05-15T01:18:39.978Z,75.80
2023-05-15T01:21:12.919Z,75.90
2023-05-15T01:23:42.750Z,76.00
2023-05-15T01:26:40.109Z,76.00
2023-05-15T01:29:33.502Z,75.70
2023-05-15T01:32:05.813Z,76.00
2023-05-15T01:34:55.420Z,76.10
2023-05-15T01:37:25.894Z,76.10
2023-05-15T01:39:55.826Z,75.90
2023-05-15T01:42:22.767Z,76.00
2023-05-15T01:44:53.745Z,76.10
2023-05-15T01:47:23.961Z,76.00
2023-05-15T01:49:51.035Z,77.10
2023-05-15T01:52:29.153Z,76.20
2023-05-15T01:54:56.034Z,76.20
2023-05-15T01:57:23.856Z,76.20
2023-05-15T01:59:50.755Z,76.20
2023-05-15T02:02:17.619Z,76.20
2023-05-15T02:04:44.978Z,76.20
2023-05-15T02:07:12.333Z,76.20
2023-05-15T02:09:39.177Z,76.20
2023-05-15T02:12:06.060Z,76.50
2023-05-15T02:14:32.958Z,76.40
2023-05-15T02:17:01.118Z,76.40
2023-05-15T02:19:27.999Z,76.40
2023-05-15T02:21:54.833Z,76.30
2023-05-15T02:24:22.816Z,76.40
2023-05-15T02:27:06.869Z,76.60
2023-05-15T02:30:18.857Z,76.60
2023-05-15T02:33:22.881Z,76.50
2023-05-15T02:36:06.883Z,76.30
2023-05-15T02:38:54.048Z,76.30
2023-05-15T02:41:21.422Z,76.50
2023-05-15T02:43:49.155Z,76.50
2023-05-15T02:46:16.194Z,76.40
2023-05-15T02:48:43.487Z,76.40
2023-05-15T02:51:10.581Z,76.50
2023-05-15T02:53:41.433Z,76.50
2023-05-15T02:56:08.849Z,76.40
2023-05-15T02:58:36.533Z,76.40
2023-05-15T03:01:04.696Z,76.30
2023-05-15T03:03:32.742Z,76.40
2023-05-15T03:06:01.916Z,76.50
2023-05-15T03:08:28.908Z,76.40
2023-05-15T03:10:55.896Z,76.50
2023-05-15T03:13:23.947Z,76.40
2023-05-15T03:15:50.957Z,76.50
2023-05-15T03:18:19.323Z,76.50
2023-05-15T03:20:47.493Z,76.40
2023-05-15T03:23:15.489Z,76.50
2023-05-15T03:25:42.389Z,76.50
2023-05-15T03:28:09.509Z,76.50
2023-05-15T03:30:37.540Z,76.40
2023-05-15T03:33:04.735Z,76.30
2023-05-15T03:35:32.889Z,76.30
2023-05-15T03:37:59.750Z,76.50
2023-05-15T03:40:26.601Z,76.40
2023-05-15T03:42:55.566Z,76.30
2023-05-15T03:45:22.504Z,76.10
2023-05-15T03:47:50.411Z,76.00
2023-05-15T03:50:22.261Z,76.00
2023-05-15T03:52:49.155Z,76.30
2023-05-15T03:55:16.048Z,76.20
2023-05-15T03:57:43.140Z,76.20
2023-05-15T04:00:11.178Z,76.00
2023-05-15T04:02:38.602Z,76.20
2023-05-15T04:05:06.292Z,76.10
2023-05-15T04:07:34.497Z,76.00
2023-05-15T04:10:01.752Z,76.10
2023-05-15T04:12:30.948Z,76.30
2023-05-15T04:15:17.129Z,76.10
2023-05-15T04:17:46.275Z,76.00
2023-05-15T04:20:17.191Z,76.00
2023-05-15T04:22:44.406Z,76.10
2023-05-15T04:25:14.781Z,76.20
2023-05-15T04:27:41.821Z,76.10
2023-05-15T04:30:10.053Z,76.20
2023-05-15T04:32:39.711Z,76.20
2023-05-15T04:35:10.836Z,75.90
2023-05-15T04:37:38.213Z,76.10
2023-05-15T04:40:07.437Z,76.00
2023-05-15T04:42:34.643Z,76.10
2023-05-15T04:45:02.889Z,76.20
2023-05-15T04:47:29.750Z,76.50
2023-05-15T04:49:56.594Z,76.30
2023-05-15T04:52:24.552Z,76.30
2023-05-15T04:54:56.128Z,76.40
2023-05-15T04:57:23.433Z,76.30
2023-05-15T04:59:50.421Z,76.30
2023-05-15T05:02:23.187Z,76.50
2023-05-15T05:04:50.523Z,76.30
2023-05-15T05:07:18.225Z,76.40
2023-05-15T05:09:45.285Z,76.20
2023-05-15T05:12:15.781Z,76.20
2023-05-15T05:14:45.513Z,76.50
2023-05-15T05:17:12.460Z,76.40
2023-05-15T05:19:39.338Z,76.30
2023-05-15T05:22:07.849Z,76.20
2023-05-15T05:24:37.881Z,76.10
2023-05-15T05:27:05.596Z,76.20
2023-05-15T05:29:35.190Z,76.40
2023-05-15T05:32:02.131Z,76.50
2023-05-15T05:34:29.172Z,76.50
2023-05-15T05:36:56.053Z,76.50
2023-05-15T05:39:22.954Z,76.50
2023-05-15T05:41:51.010Z,76.60
2023-05-15T05:44:20.781Z,76.50
2023-05-15T05:46:47.814Z,76.60
2023-05-15T05:49:14.718Z,77.10
2023-05-15T05:51:41.731Z,76.70
2023-05-15T05:54:09.089Z,76.70
2023-05-15T05:56:35.997Z,76.70
2023-05-15T05:59:02.906Z,76.60
2023-05-15T06:01:30.437Z,76.40
2023-05-15T06:03:57.678Z,76.70
2023-05-15T06:06:25.768Z,76.50
2023-05-15T06:08:54.873Z,76.50
2023-05-15T06:11:25.179Z,76.80
2023-05-15T06:13:53.685Z,76.60
2023-05-15T06:16:21.393Z,76.70
2023-05-15T06:18:49.583Z,76.60
2023-05-15T06:21:16.515Z,76.70
2023-05-15T06:23:43.320Z,76.70
2023-05-15T06:26:10.416Z,76.80
2023-05-15T06:28:37.357Z,76.70
2023-05-15T06:31:04.408Z,76.80
2023-05-15T06:33:31.681Z,76.70
2023-05-15T06:35:58.609Z,77.70
2023-05-15T06:38:25.526Z,76.90
2023-05-15T06:40:52.975Z,76.90
2023-05-15T06:43:19.861Z,77.80
2023-05-15T06:45:49.749Z,77.00
2023-05-15T06:48:20.357Z,77.10
2023-05-15T06:50:47.237Z,77.10
2023-05-15T06:53:14.714Z,77.30
2023-05-15T06:55:41.662Z,77.40
2023-05-15T06:58:08.510Z,77.60
2023-05-15T07:00:36.232Z,77.70
2023-05-15T07:03:03.199Z,77.90
2023-05-15T07:05:30.101Z,78.20
2023-05-15T07:07:57.383Z,78.20
2023-05-15T07:10:24.615Z,78.20
2023-05-15T07:12:55.808Z,78.40
2023-05-15T07:15:22.777Z,78.30
2023-05-15T07:17:52.038Z,78.40
2023-05-15T07:20:18.992Z,78.40
2023-05-15T07:22:55.882Z,78.50
2023-05-15T07:25:25.064Z,78.30
2023-05-15T07:27:52.434Z,78.30
2023-05-15T07:30:19.526Z,78.40
2023-05-15T07:32:46.588Z,78.20
2023-05-15T07:35:13.527Z,79.20
2023-05-15T07:37:40.960Z,78.20
2023-05-15T07:40:08.476Z,78.00
2023-05-15T07:42:36.450Z,78.00
2023-05-15T07:45:03.476Z,78.00
2023-05-15T07:47:30.393Z,77.80
2023-05-15T07:49:58.518Z,77.90
2023-05-15T07:52:25.496Z,77.70
2023-05-15T07:54:54.046Z,77.90
2023-05-15T07:57:20.882Z,77.90
2023-05-15T07:59:47.760Z,77.80
2023-05-15T08:02:14.821Z,77.90
2023-05-15T08:04:41.716Z,77.70
2023-05-15T08:07:08.677Z,77.80
2023-05-15T08:09:36.588Z,77.90
2023-05-15T08:12:21.046Z,77.60
2023-05-15T08:14:51.411Z,77.60
2023-05-15T08:17:19.068Z,77.60
2023-05-15T08:19:47.072Z,77.50
2023-05-15T08:22:14.309Z,77.50
2023-05-15T08:24:45.064Z,77.50
2023-05-15T08:27:12.021Z,77.60
2023-05-15T08:29:39.747Z,77.40
2023-05-15T08:32:10.653Z,77.40
2023-05-15T08:34:38.807Z,77.40
2023-05-15T08:37:07.296Z,77.40
2023-05-15T08:39:34.143Z,77.40
2023-05-15T08:42:21.605Z,77.80
2023-05-15T08:44:52.895Z,77.60
2023-05-15T08:47:20.388Z,77.50
2023-05-15T08:50:06.479Z,77.80
2023-05-15T08:52:33.851Z,77.60
2023-05-15T08:55:01.207Z,77.60
2023-05-15T08:57:28.957Z,77.50
2023-05-15T08:59:56.649Z,77.70
2023-05-15T09:02:26.190Z,77.70
2023-05-15T09:04:53.056Z,77.40
2023-05-15T09:07:20.853Z,77.50
2023-05-15T09:09:47.828Z,77.30
2023-05-15T09:12:17.513Z,77.40
2023-05-15T09:14:47.818Z,77.40
2023-05-15T09:17:15.526Z,77.30
2023-05-15T09:19:44.280Z,77.30
2023-05-15T09:22:18.513Z,77.10
2023-05-15T09:24:51.722Z,76.90
2023-05-15T09:27:22.290Z,77.20
2023-05-15T09:29:51.485Z,77.00
2023-05-15T09:32:19.688Z,77.00
2023-05-15T09:34:46.569Z,76.80
2023-05-15T09:37:30.131Z,76.60
2023-05-15T09:40:11.893Z,76.50
2023-05-15T09:42:38.897Z,76.60
2023-05-15T09:45:07.662Z,76.60
2023-05-15T09:47:34.997Z,77.00
2023-05-15T09:50:02.379Z,76.90
2023-05-15T09:52:30.250Z,76.90
2023-05-15T09:54:57.719Z,76.40
2023-05-15T09:57:28.617Z,76.30
2023-05-15T09:59:56.222Z,76.20
2023-05-15T10:02:32.300Z,75.90
2023-05-15T10:04:59.637Z,75.60
2023-05-15T10:07:33.887Z,75.30
2023-05-15T10:10:02.590Z,75.00
2023-05-15T10:12:32.039Z,75.10
2023-05-15T10:14:59.688Z,74.90
2023-05-15T10:17:28.689Z,74.30
2023-05-15T10:19:58.431Z,74.40
2023-05-15T10:22:32.327Z,73.70
2023-05-15T10:25:10.805Z,73.90
2023-05-15T10:27:37.684Z,73.80
2023-05-15T10:30:05.175Z,73.50
2023-05-15T10:32:32.158Z,73.70
2023-05-15T10:35:00.044Z,73.90
2023-05-15T10:37:27.212Z,73.50
2023-05-15T10:39:54.096Z,73.60
2023-05-15T10:42:24.835Z,73.70
2023-05-15T10:44:53.860Z,73.90
2023-05-15T10:47:20.955Z,73.60
2023-05-15T10:49:48.210Z,73.20
2023-05-15T10:52:16.343Z,73.40
2023-05-15T10:54:44.330Z,73.20
2023-05-15T10:57:11.350Z,73.20
2023-05-15T10:59:38.168Z,73.30
2023-05-15T11:02:25.759Z,73.30
2023-05-15T11:05:02.400Z,73.30
2023-05-15T11:07:29.286Z,73.30
2023-05-15T11:09:56.503Z,73.20
2023-05-15T11:12:23.742Z,73.10
2023-05-15T11:14:56.768Z,73.00
2023-05-15T11:17:25.154Z,73.30
2023-05-15T11:19:51.959Z,73.10
2023-05-15T11:22:22.391Z,72.90
2023-05-15T11:25:01.104Z,72.60
2023-05-15T11:27:38.736Z,73.00
2023-05-15T11:30:06.874Z,73.80
2023-05-15T11:32:58.437Z,71.10
2023-05-15T11:35:35.119Z,71.00
2023-05-15T11:38:13.368Z,71.50
2023-05-15T11:40:58.564Z,70.80
2023-05-15T11:43:27.681Z,70.40
2023-05-15T11:46:06.496Z,69.80
2023-05-15T11:48:36.278Z,70.10
2023-05-15T11:51:03.299Z,70.70
2023-05-15T11:53:30.732Z,69.90
2023-05-15T11:55:57.904Z,69.60
2023-05-15T11:58:25.798Z,69.60
2023-05-15T12:00:54.048Z,69.90
2023-05-15T12:03:24.815Z,69.40
2023-05-15T12:05:59.159Z,69.60
2023-05-15T12:08:36.150Z,69.30
2023-05-15T12:11:03.340Z,69.80
2023-05-15T12:13:31.271Z,69.40
2023-05-15T12:16:02.705Z,70.00
2023-05-15T12:18:32.297Z,68.60
2023-05-15T12:20:59.272Z,68.90
2023-05-15T12:23:28.187Z,69.00
2023-05-15T12:25:59.422Z,69.20
2023-05-15T12:28:30.372Z,69.00
2023-05-15T12:30:57.220Z,68.80
2023-05-15T12:33:24.110Z,68.80
2023-05-15T12:35:58.852Z,69.00
2023-05-15T12:38:29.284Z,69.30
2023-05-15T12:40:59.850Z,69.40
2023-05-15T12:43:26.909Z,69.70
2023-05-15T12:45:57.348Z,69.80
2023-05-15T12:48:33.254Z,70.00
2023-05-15T12:51:07.584Z,69.40
2023-05-15T12:53:36.325Z,69.10
2023-05-15T12:56:04.585Z,68.70
2023-05-15T12:58:32.503Z,69.10
2023-05-15T13:00:59.510Z,68.00
2023-05-15T13:03:28.187Z,68.20
2023-05-15T13:05:55.881Z,68.00
2023-05-15T13:08:27.247Z,68.30
2023-05-15T13:11:02.544Z,68.00
2023-05-15T13:13:48.502Z,68.20
2023-05-15T13:16:26.197Z,68.00
2023-05-15T13:18:58.102Z,67.70
2023-05-15T13:21:26.165Z,67.50
2023-05-15T13:23:53.116Z,67.30
2023-05-15T13:26:19.996Z,67.40
2023-05-15T13:28:47.016Z,67.50
2023-05-15T13:31:14.032Z,67.90
2023-05-15T13:33:42.411Z,68.00
2023-05-15T13:36:09.404Z,68.20
2023-05-15T13:38:36.620Z,68.00
2023-05-15T13:41:06.618Z,68.10
2023-05-15T13:43:43.298Z,68.00
2023-05-15T13:46:10.101Z,67.70
2023-05-15T13:48:37.201Z,67.90
2023-05-15T13:51:08.320Z,67.80
2023-05-15T13:53:37.542Z,68.10
2023-05-15T13:56:05.650Z,68.30
2023-05-15T13:58:33.236Z,68.50
2023-05-15T14:01:03.426Z,68.20
2023-05-15T14:03:34.157Z,68.00
2023-05-15T14:06:02.224Z,67.60
2023-05-15T14:08:29.137Z,66.90
2023-05-15T14:10:56.095Z,65.90
2023-05-15T14:13:24.496Z,67.20
2023-05-15T14:16:01.879Z,66.90
2023-05-15T14:18:29.959Z,66.30
2023-05-15T14:20:58.660Z,66.70
2023-05-15T14:23:28.494Z,66.70
2023-05-15T14:25:55.495Z,66.30
2023-05-15T14:28:22.340Z,65.30
2023-05-15T14:30:49.632Z,65.20
2023-05-15T14:33:16.585Z,65.20
2023-05-15T14:35:44.952Z,65.10
2023-05-15T14:38:12.091Z,65.50
2023-05-15T14:40:38.919Z,65.50
2023-05-15T14:43:06.349Z,65.10
2023-05-15T14:45:33.364Z,65.60
2023-05-15T14:48:01.675Z,65.10
2023-05-15T14:50:28.948Z,65.00
2023-05-15T14:52:55.973Z,64.20
2023-05-15T14:55:23.297Z,64.40
2023-05-15T14:57:50.315Z,63.90
2023-05-15T15:00:18.694Z,61.40
2023-05-15T15:02:52.085Z,62.00
2023-05-15T15:05:19.065Z,62.10
2023-05-15T15:08:05.905Z,62.30
2023-05-15T15:10:33.697Z,62.40
2023-05-15T15:13:01.958Z,61.30
2023-05-15T15:15:29.070Z,61.30
2023-05-15T15:18:00.184Z,61.70
2023-05-15T15:20:30.974Z,61.60
2023-05-15T15:22:57.792Z,61.20
2023-05-15T15:25:25.118Z,60.60
2023-05-15T15:27:52.047Z,61.40
2023-05-15T15:30:18.916Z,61.10
2023-05-15T15:32:48.112Z,61.60
2023-05-15T15:35:16.172Z,62.00
2023-05-15T15:37:43.070Z,61.90
2023-05-15T15:40:11.080Z,61.40
2023-05-15T15:42:39.041Z,61.60
2023-05-15T15:45:06.347Z,61.10
2023-05-15T15:47:34.530Z,61.00
2023-05-15T15:50:01.509Z,61.20
2023-05-15T15:52:28.630Z,61.30
2023-05-15T15:54:56.566Z,61.40
2023-05-15T15:57:23.372Z,61.60
2023-05-15T15:59:52.426Z,62.00
2023-05-15T16:02:20.988Z,62.40
2023-05-15T16:04:48.028Z,62.70
2023-05-15T16:07:14.839Z,63.10
2023-05-15T16:09:41.982Z,63.10
2023-05-15T16:12:09.160Z,62.80
2023-05-15T16:14:36.158Z,63.20
2023-05-15T16:17:04.636Z,63.40
2023-05-15T16:19:31.751Z,63.40
2023-05-15T16:21:58.612Z,62.90
2023-05-15T16:24:25.699Z,62.50
2023-05-15T16:26:52.574Z,62.00
2023-05-15T16:29:22.664Z,62.10
2023-05-15T16:31:49.858Z,61.90
2023-05-15T16:34:18.016Z,61.80
2023-05-15T16:36:46.805Z,62.50
2023-05-15T16:39:14.146Z,62.30
2023-05-15T16:41:40.946Z,62.30
2023-05-15T16:44:10.921Z,62.20
2023-05-15T16:46:38.540Z,62.00
2023-05-15T16:49:06.956Z,60.80
2023-05-15T16:51:33.828Z,60.50
2023-05-15T16:54:01.588Z,60.80
2023-05-15T16:56:29.122Z,61.70
2023-05-15T16:58:57.850Z,61.30
2023-05-15T17:01:27.521Z,61.10
2023-05-15T17:03:54.556Z,61.00
2023-05-15T17:06:24.743Z,61.30
2023-05-15T17:08:54.785Z,61.70
2023-05-15T17:11:22.502Z,62.10
2023-05-15T17:13:55.821Z,62.50
2023-05-15T17:16:23.192Z,62.80
2023-05-15T17:18:50.137Z,63.20
2023-05-15T17:21:17.339Z,63.10
2023-05-15T17:23:44.500Z,63.30
2023-05-15T17:26:11.348Z,63.40
2023-05-15T17:28:41.218Z,63.50
2023-05-15T17:31:12.427Z,64.60
2023-05-15T17:33:39.272Z,63.90
2023-05-15T17:36:09.453Z,63.60
2023-05-15T17:38:36.284Z,63.90
2023-05-15T17:41:03.853Z,63.90
2023-05-15T17:43:30.716Z,64.00
2023-05-15T17:45:57.640Z,63.80
2023-05-15T17:48:25.838Z,63.70
2023-05-15T17:50:53.058Z,63.70
2023-05-15T17:53:22.726Z,63.70
2023-05-15T17:55:49.645Z,63.40
2023-05-15T17:58:17.359Z,63.40
2023-05-15T18:00:44.228Z,63.50
2023-05-15T18:03:12.752Z,63.30
2023-05-15T18:05:39.696Z,63.60
2023-05-15T18:08:09.841Z,63.90
2023-05-15T18:10:39.298Z,64.00
2023-05-15T18:13:06.511Z,63.80
2023-05-15T18:15:35.934Z,63.50
2023-05-15T18:18:03.170Z,63.70
2023-05-15T18:20:33.486Z,63.60
2023-05-15T18:23:00.348Z,63.80
2023-05-15T18:25:28.664Z,63.90
2023-05-15T18:27:55.606Z,64.00
2023-05-15T18:30:23.682Z,64.00
2023-05-15T18:32:51.361Z,63.80
2023-05-15T18:35:18.620Z,63.70
2023-05-15T18:37:45.798Z,63.90
2023-05-15T18:40:12.965Z,64.10
2023-05-15T18:42:40.758Z,64.20
2023-05-15T18:45:08.319Z,64.30
2023-05-15T18:47:35.239Z,64.50
2023-05-15T18:50:03.064Z,64.50
2023-05-15T18:52:29.849Z,64.70
2023-05-15T18:54:58.145Z,64.70
2023-05-15T18:57:24.976Z,64.60
2023-05-15T18:59:52.785Z,64.70
2023-05-15T19:02:25.220Z,64.80
2023-05-15T19:04:56.725Z,65.00
2023-05-15T19:07:28.560Z,65.20
2023-05-15T19:10:06.559Z,65.50
2023-05-15T19:12:33.555Z,65.40
2023-05-15T19:15:01.896Z,65.50
2023-05-15T19:17:28.734Z,65.50
2023-05-15T19:19:55.761Z,65.60
2023-05-15T19:22:22.759Z,65.60
2023-05-15T19:24:49.800Z,65.70
2023-05-15T19:27:18.040Z,65.70
2023-05-15T19:29:45.465Z,65.70
2023-05-15T19:32:12.280Z,66.00
2023-05-15T19:34:39.236Z,66.30
2023-05-15T19:37:06.273Z,66.50
2023-05-15T19:39:34.767Z,66.50
2023-05-15T19:42:01.745Z,66.60
2023-05-15T19:44:28.572Z,66.70
2023-05-15T19:46:56.777Z,66.80
2023-05-15T19:49:23.652Z,67.00
2023-05-15T19:51:51.916Z,67.10
2023-05-15T19:54:18.801Z,66.80
2023-05-15T19:56:45.743Z,66.80
2023-05-15T19:59:12.553Z,66.80
2023-05-15T20:01:39.826Z,67.10
2023-05-15T20:04:06.752Z,67.10
2023-05-15T20:06:34.519Z,67.40
2023-05-15T20:09:01.600Z,67.40
2023-05-15T20:11:31.816Z,67.40
2023-05-15T20:13:58.686Z,67.60
2023-05-15T20:16:26.778Z,67.80
2023-05-15T20:18:57.518Z,67.80
2023-05-15T20:21:24.323Z,67.80
2023-05-15T20:23:51.246Z,67.70
2023-05-15T20:26:19.989Z,67.70
2023-05-15T20:28:49.864Z,67.90
2023-05-15T20:31:16.666Z,67.90
2023-05-15T20:33:43.657Z,68.00
2023-05-15T20:36:10.987Z,68.10
2023-05-15T20:38:38.590Z,68.10
2023-05-15T20:41:06.730Z,68.20
2023-05-15T20:43:33.559Z,68.20
2023-05-15T20:46:00.690Z,68.40
2023-05-15T20:48:27.859Z,68.40
2023-05-15T20:50:54.736Z,68.50
2023-05-15T20:53:21.908Z,68.60
2023-05-15T20:55:49.878Z,68.60
2023-05-15T20:58:16.786Z,68.70
2023-05-15T21:00:44.762Z,68.80
2023-05-15T21:03:11.941Z,68.80
2023-05-15T21:05:38.804Z,69.00
2023-05-15T21:08:06.116Z,69.00
2023-05-15T21:10:32.993Z,69.90
2023-05-15T21:12:59.890Z,69.20
2023-05-15T21:15:26.917Z,69.20
2023-05-15T21:17:54.003Z,69.40
2023-05-15T21:20:22.413Z,69.20
2023-05-15T21:22:49.271Z,69.30
2023-05-15T21:25:19.056Z,69.20
2023-05-15T21:27:45.895Z,69.20
2023-05-15T21:30:15.898Z,69.40
2023-05-15T21:32:42.783Z,69.70
2023-05-15T21:35:11.067Z,69.70
2023-05-15T21:37:38.023Z,69.70
2023-05-15T21:40:07.398Z,69.80
2023-05-15T21:42:34.210Z,69.90
2023-05-15T21:45:01.077Z,70.00
2023-05-15T21:47:28.271Z,70.00
2023-05-15T21:49:55.074Z,70.10
2023-05-15T21:52:22.005Z,70.10
2023-05-15T21:54:49.334Z,70.00
2023-05-15T21:57:16.214Z,70.10
2023-05-15T21:59:43.065Z,70.20
2023-05-15T22:02:10.898Z,70.30
2023-05-15T22:04:37.839Z,70.30
2023-05-15T22:07:06.064Z,70.20
2023-05-15T22:09:36.724Z,70.30
2023-05-15T22:12:03.849Z,70.40
2023-05-15T22:14:30.689Z,70.40
2023-05-15T22:16:58.207Z,70.50
2023-05-15T22:19:33.169Z,70.60
2023-05-15T22:22:01.963Z,70.60
2023-05-15T22:24:28.810Z,70.60
2023-05-15T22:26:57.664Z,70.60
2023-05-15T22:29:24.524Z,70.50
2023-05-15T22:31:51.404Z,71.40
2023-05-15T22:34:18.737Z,70.60
2023-05-15T22:36:45.591Z,70.80
2023-05-15T22:39:13.578Z,70.80
2023-05-15T22:41:40.492Z,70.80
2023-05-15T22:44:08.229Z,70.80
2023-05-15T22:46:35.055Z,70.60
2023-05-15T22:49:02.208Z,70.70
2023-05-15T22:51:31.454Z,70.90
2023-05-15T22:54:01.917Z,70.80
2023-05-15T22:56:28.775Z,70.90
2023-05-15T22:58:56.364Z,71.10
2023-05-15T23:01:25.787Z,71.10
2023-05-15T23:03:54.014Z,71.20
2023-05-15T23:06:21.300Z,71.30
2023-05-15T23:08:48.112Z,72.10
2023-05-15T23:11:15.989Z,71.40
2023-05-15T23:13:43.056Z,71.40
2023-05-15T23:16:11.253Z,71.30
2023-05-15T23:18:38.172Z,71.20
2023-05-15T23:21:05.122Z,71.30
2023-05-15T23:23:32.179Z,71.40
2023-05-15T23:25:59.071Z,71.40
2023-05-15T23:28:26.020Z,71.30
2023-05-15T23:30:54.157Z,71.40
2023-05-15T23:33:21.234Z,71.50
2023-05-15T23:35:48.666Z,71.40
2023-05-15T23:38:15.567Z,71.40
2023-05-15T23:40:42.782Z,71.60
2023-05-15T23:43:10.344Z,71.70
2023-05-15T23:45:37.168Z,71.70
2023-05-15T23:48:04.527Z,71.50
2023-05-15T23:50:31.939Z,71.70
2023-05-15T23:52:58.778Z,71.60
2023-05-15T23:55:25.774Z,72.10
2023-05-15T23:57:52.705Z,72.20
